Time;durP1;ratioP1;P1;durP2;ratioP2;P2;SDS_P1;SDS_P2;PMS_P1;PMS_P2;Temp;Humidity;BMP_temperature;BMP_pressure;BME280_temperature;BME280_humidity;BME280_pressure;Samples;Min_cycle;Max_cycle;Signal;HPM_P1;HPM_P2
2022/11/27 00:02:05;;;;;;;0.10;0.10;;;7.30;99.90;;;;;;5007567;28;20119;-66
2022/11/27 00:04:30;;;;;;;0.10;0.10;;;7.30;99.90;;;;;;5001009;28;20073;-66
2022/11/27 00:06:56;;;;;;;0.55;0.55;;;7.30;99.90;;;;;;4988490;28;20536;-65
2022/11/27 00:09:21;;;;;;;0.22;0.22;;;7.30;99.90;;;;;;4989325;28;20046;-66
2022/11/27 00:11:47;;;;;;;4.57;0.82;;;7.20;99.90;;;;;;4999758;28;20088;-66
2022/11/27 00:14:15;;;;;;;0.13;0.13;;;7.20;99.90;;;;;;5004810;28;20103;-66
2022/11/27 00:16:40;;;;;;;0.10;0.10;;;7.20;99.90;;;;;;4993921;28;20046;-66
2022/11/27 00:19:06;;;;;;;0.10;0.10;;;7.20;99.90;;;;;;5012837;28;20042;-66
2022/11/27 00:21:34;;;;;;;0.47;0.47;;;7.20;99.90;;;;;;4989777;28;20050;-66
2022/11/27 00:24:02;;;;;;;0.10;0.10;;;7.20;99.90;;;;;;5008414;28;20038;-66
2022/11/27 00:26:29;;;;;;;1.58;1.48;;;7.20;99.90;;;;;;5011203;28;20038;-66
2022/11/27 00:28:55;;;;;;;0.00;0.00;;;7.20;99.90;;;;;;4994849;28;20474;-66
2022/11/27 00:31:26;;;;;;;0.10;0.10;;;7.20;99.90;;;;;;4998415;28;20114;-66
2022/11/27 00:33:54;;;;;;;0.30;0.30;;;7.20;99.90;;;;;;4991549;28;20047;-66
2022/11/27 00:36:19;;;;;;;0.73;0.73;;;7.20;99.90;;;;;;5000941;28;20494;-65
2022/11/27 00:38:45;;;;;;;0.80;0.60;;;7.20;99.90;;;;;;5008029;28;20050;-66
2022/11/27 00:41:17;;;;;;;1.38;0.73;;;7.20;99.90;;;;;;4998386;28;20119;-66
2022/11/27 00:43:42;;;;;;;0.20;0.20;;;7.10;99.90;;;;;;4988812;28;20391;-66
2022/11/27 00:46:08;;;;;;;0.10;0.10;;;7.10;99.90;;;;;;4988964;28;20406;-66
2022/11/27 00:48:33;;;;;;;0.32;0.32;;;7.10;99.90;;;;;;4981792;28;20042;-66
2022/11/27 00:51:01;;;;;;;0.30;0.30;;;7.10;99.90;;;;;;4999123;28;20053;-66
2022/11/27 00:53:27;;;;;;;1.95;1.35;;;7.10;99.90;;;;;;4988589;28;20517;-66
2022/11/27 00:55:53;;;;;;;5.20;1.25;;;7.10;99.90;;;;;;5003220;28;20034;-66
2022/11/27 00:58:19;;;;;;;0.28;0.28;;;7.10;99.90;;;;;;5007195;28;20481;-66
2022/11/27 01:00:44;;;;;;;0.30;0.30;;;7.10;99.90;;;;;;5007957;28;20056;-66
2022/11/27 01:03:10;;;;;;;0.60;0.55;;;7.00;99.90;;;;;;5008060;28;20042;-65
2022/11/27 01:05:36;;;;;;;0.57;0.57;;;7.10;99.90;;;;;;4992690;28;20042;-66
2022/11/27 01:08:02;;;;;;;0.10;0.10;;;7.10;99.90;;;;;;4988469;28;20046;-65
2022/11/27 01:10:28;;;;;;;0.35;0.35;;;7.00;99.90;;;;;;4995658;28;20060;-66
2022/11/27 01:12:53;;;;;;;0.10;0.10;;;7.00;99.90;;;;;;5006382;28;20129;-65
2022/11/27 01:15:19;;;;;;;2.60;2.15;;;7.00;99.90;;;;;;5011212;28;20485;-65
2022/11/27 01:17:44;;;;;;;0.20;0.20;;;7.00;99.90;;;;;;5010756;28;20375;-66
2022/11/27 01:20:10;;;;;;;8.05;1.75;;;6.90;99.90;;;;;;5012233;28;20060;-66
2022/11/27 01:22:36;;;;;;;0.22;0.22;;;7.00;99.90;;;;;;4994928;28;20046;-66
2022/11/27 01:25:01;;;;;;;1.00;1.00;;;7.00;99.90;;;;;;5001454;28;20050;-66
2022/11/27 01:27:27;;;;;;;0.10;0.10;;;7.00;99.90;;;;;;5000875;28;20042;-66
2022/11/27 01:29:52;;;;;;;0.30;0.30;;;7.00;99.90;;;;;;5010145;28;20041;-66
2022/11/27 01:32:18;;;;;;;1.17;1.13;;;7.00;99.90;;;;;;4999747;28;20043;-66
2022/11/27 01:34:43;;;;;;;2.50;1.55;;;7.00;99.90;;;;;;4997624;28;20054;-66
2022/11/27 01:37:09;;;;;;;0.15;0.15;;;7.00;99.90;;;;;;5007180;28;20057;-66
2022/11/27 01:39:34;;;;;;;6.25;0.63;;;7.00;99.90;;;;;;4992649;28;20091;-66
2022/11/27 01:42:00;;;;;;;1.23;1.23;;;7.10;99.90;;;;;;4993078;28;20092;-66
2022/11/27 01:44:26;;;;;;;0.68;0.68;;;7.00;99.90;;;;;;4991525;28;20159;-66
2022/11/27 01:47:09;;;;;;;0.10;0.10;;;7.00;99.90;;;;;;5009049;28;20042;-66
2022/11/27 01:49:43;;;;;;;0.75;0.75;;;7.10;99.90;;;;;;4991219;28;20046;-66
2022/11/27 01:52:39;;;;;;;0.85;0.45;;;7.00;99.90;;;;;;4994049;28;20056;-66
2022/11/27 01:55:11;;;;;;;0.35;0.35;;;7.10;99.90;;;;;;5009900;28;20465;-66
2022/11/27 01:57:43;;;;;;;3.30;1.88;;;7.10;99.90;;;;;;5011209;28;20092;-66
2022/11/27 02:00:12;;;;;;;0.32;0.32;;;7.00;99.90;;;;;;5004407;28;20045;-66
2022/11/27 02:02:38;;;;;;;0.10;0.10;;;7.00;99.90;;;;;;5019381;28;20037;-66
2022/11/27 02:05:04;;;;;;;0.10;0.10;;;7.10;99.90;;;;;;5010173;28;20121;-66
2022/11/27 02:07:29;;;;;;;0.15;0.15;;;7.00;99.90;;;;;;5006024;28;20042;-66
2022/11/27 02:09:55;;;;;;;0.10;0.10;;;7.10;99.90;;;;;;4993182;28;20090;-66
2022/11/27 02:12:40;;;;;;;1.35;0.73;;;7.10;99.90;;;;;;5002697;28;20088;-66
2022/11/27 02:15:20;;;;;;;0.28;0.28;;;7.10;99.90;;;;;;4984098;28;20081;-66
2022/11/27 02:17:53;;;;;;;0.10;0.10;;;7.10;99.90;;;;;;5009889;28;20515;-65
2022/11/27 02:20:37;;;;;;;15.65;3.40;;;7.10;99.90;;;;;;5009616;28;20041;-66
2022/11/27 02:23:33;;;;;;;0.20;0.20;;;7.10;99.90;;;;;;5008084;28;20549;-66
2022/11/27 02:26:13;;;;;;;0.10;0.10;;;7.20;99.90;;;;;;5008579;28;20057;-66
2022/11/27 02:28:57;;;;;;;0.38;0.38;;;7.10;99.90;;;;;;4998645;28;20077;-66
2022/11/27 02:31:30;;;;;;;0.20;0.20;;;7.20;99.90;;;;;;5000925;28;20042;-66
2022/11/27 02:34:03;;;;;;;0.43;0.43;;;7.10;99.90;;;;;;5009426;28;20053;-66
2022/11/27 02:36:30;;;;;;;0.15;0.15;;;7.20;99.90;;;;;;5007336;28;20505;-66
2022/11/27 02:39:06;;;;;;;0.10;0.10;;;7.20;99.90;;;;;;5000063;28;20042;-66
2022/11/27 02:41:49;;;;;;;11.95;1.98;;;7.20;99.90;;;;;;4991515;28;20052;-66
2022/11/27 02:44:17;;;;;;;0.10;0.10;;;7.10;99.90;;;;;;4995611;28;20061;-67
2022/11/27 02:46:44;;;;;;;2.55;0.93;;;7.10;99.90;;;;;;4986181;28;20050;-66
2022/11/27 02:49:14;;;;;;;0.10;0.10;;;7.10;99.90;;;;;;4995262;28;20043;-66
2022/11/27 02:52:01;;;;;;;5.00;4.57;;;7.20;99.90;;;;;;5005426;28;20129;-66
2022/11/27 02:54:29;;;;;;;0.10;0.10;;;7.20;99.90;;;;;;4995733;28;20511;-66
2022/11/27 02:56:57;;;;;;;0.10;0.10;;;7.20;99.90;;;;;;4989738;28;20042;-66
2022/11/27 02:59:26;;;;;;;0.10;0.10;;;7.10;99.90;;;;;;5009843;28;20117;-66
2022/11/27 03:01:55;;;;;;;0.73;0.73;;;7.20;99.90;;;;;;5009017;28;20056;-66
2022/11/27 03:04:27;;;;;;;0.63;0.63;;;7.10;99.90;;;;;;4994023;28;20125;-66
2022/11/27 03:06:58;;;;;;;0.32;0.32;;;7.10;99.90;;;;;;4994765;28;20456;-66
2022/11/27 03:09:34;;;;;;;0.15;0.15;;;7.20;99.90;;;;;;4985326;28;20057;-66
2022/11/27 03:12:02;;;;;;;0.13;0.13;;;7.10;99.90;;;;;;4998472;28;20094;-66
2022/11/27 03:14:28;;;;;;;0.30;0.30;;;7.10;99.90;;;;;;4993866;28;20556;-66
2022/11/27 03:17:06;;;;;;;0.10;0.10;;;7.10;99.90;;;;;;4982426;28;20077;-66
2022/11/27 03:19:44;;;;;;;0.10;0.10;;;7.10;99.90;;;;;;5001161;28;20089;-66
2022/11/27 03:22:10;;;;;;;0.10;0.10;;;7.10;99.90;;;;;;4983887;28;20505;-65
2022/11/27 03:24:36;;;;;;;0.10;0.10;;;7.10;99.90;;;;;;4984256;28;20546;-66
2022/11/27 03:27:03;;;;;;;0.10;0.10;;;7.10;99.90;;;;;;5009401;28;20125;-66
2022/11/27 03:29:54;;;;;;;0.10;0.10;;;7.00;99.90;;;;;;5009583;28;20049;-66
2022/11/27 03:32:20;;;;;;;0.30;0.30;;;7.10;99.90;;;;;;4991077;28;20125;-66
2022/11/27 03:34:46;;;;;;;0.10;0.10;;;7.00;99.90;;;;;;5002912;28;20199;-65
2022/11/27 03:37:12;;;;;;;0.10;0.10;;;7.00;99.90;;;;;;5008058;28;20053;-65
2022/11/27 03:39:38;;;;;;;0.20;0.20;;;7.00;99.90;;;;;;5008840;28;20050;-66
2022/11/27 03:42:06;;;;;;;0.10;0.10;;;7.00;99.90;;;;;;5007945;28;20133;-65
2022/11/27 03:44:48;;;;;;;0.25;0.25;;;6.90;99.90;;;;;;4999672;28;20046;-65
2022/11/27 03:47:42;;;;;;;0.10;0.10;;;7.00;99.90;;;;;;4989443;28;20501;-65
2022/11/27 03:50:14;;;;;;;0.10;0.10;;;7.00;99.90;;;;;;5011358;28;20128;-65
2022/11/27 03:53:11;;;;;;;0.20;0.20;;;7.00;99.90;;;;;;5007805;28;20057;-65
2022/11/27 03:55:56;;;;;;;0.40;0.40;;;7.00;99.90;;;;;;5003254;28;20128;-65
2022/11/27 03:58:30;;;;;;;1.02;0.98;;;7.00;99.90;;;;;;4999887;28;20158;-65
2022/11/27 04:00:58;;;;;;;0.57;0.52;;;7.00;99.90;;;;;;4980935;28;20057;-65
2022/11/27 04:03:27;;;;;;;0.10;0.10;;;6.90;99.90;;;;;;5004947;28;20046;-65
2022/11/27 04:05:53;;;;;;;0.40;0.40;;;6.90;99.90;;;;;;4992810;28;20521;-65
2022/11/27 04:08:19;;;;;;;0.47;0.47;;;6.90;99.90;;;;;;4971724;28;20046;-65
2022/11/27 04:10:45;;;;;;;0.60;0.35;;;7.00;99.90;;;;;;4988657;28;20054;-65
2022/11/27 04:13:11;;;;;;;0.47;0.47;;;6.90;99.90;;;;;;4989644;28;20133;-65
2022/11/27 04:15:36;;;;;;;1.48;1.38;;;6.90;99.90;;;;;;5001840;28;20073;-65
2022/11/27 04:18:02;;;;;;;1.48;0.98;;;6.90;99.90;;;;;;4999306;28;20816;-65
2022/11/27 04:20:28;;;;;;;0.65;0.55;;;7.00;99.90;;;;;;4989944;28;20049;-65
2022/11/27 04:22:54;;;;;;;0.20;0.20;;;7.00;99.90;;;;;;4995808;28;20042;-65
2022/11/27 04:25:20;;;;;;;0.10;0.10;;;6.90;99.90;;;;;;5000325;28;20129;-66
2022/11/27 04:27:46;;;;;;;0.30;0.30;;;6.90;99.90;;;;;;4990275;28;20065;-65
2022/11/27 04:30:12;;;;;;;0.10;0.10;;;7.00;99.90;;;;;;4989172;28;20053;-65
2022/11/27 04:32:38;;;;;;;0.25;0.25;;;6.90;99.90;;;;;;4995018;28;20533;-65
2022/11/27 04:35:04;;;;;;;0.65;0.65;;;6.90;99.90;;;;;;5007107;28;20517;-65
2022/11/27 04:37:30;;;;;;;0.10;0.10;;;6.90;99.90;;;;;;5002564;28;20112;-65
2022/11/27 04:39:55;;;;;;;0.10;0.10;;;6.90;99.90;;;;;;5008542;28;20045;-65
2022/11/27 04:42:21;;;;;;;1.50;0.45;;;6.90;99.90;;;;;;5006646;28;20042;-65
2022/11/27 04:44:47;;;;;;;0.22;0.22;;;6.90;99.90;;;;;;5009949;28;20045;-65
2022/11/27 04:47:12;;;;;;;0.10;0.10;;;6.90;99.90;;;;;;5010222;28;20048;-65
2022/11/27 04:49:38;;;;;;;0.95;0.95;;;6.90;99.90;;;;;;5008816;28;20037;-65
2022/11/27 04:52:03;;;;;;;0.30;0.30;;;6.90;99.90;;;;;;5012546;28;20049;-65
2022/11/27 04:54:29;;;;;;;0.10;0.10;;;6.90;99.90;;;;;;5008395;28;20204;-65
2022/11/27 04:56:55;;;;;;;1.60;0.22;;;6.90;99.90;;;;;;4992600;28;20109;-65
2022/11/27 04:59:21;;;;;;;0.28;0.28;;;7.00;99.90;;;;;;4992971;28;20085;-65
2022/11/27 05:01:46;;;;;;;0.17;0.17;;;6.90;99.90;;;;;;5006050;28;20125;-65
2022/11/27 05:04:12;;;;;;;0.90;0.90;;;7.00;99.90;;;;;;4996957;28;20113;-65
2022/11/27 05:06:38;;;;;;;0.10;0.10;;;6.90;99.90;;;;;;4992850;28;20401;-65
2022/11/27 05:09:03;;;;;;;0.30;0.30;;;6.90;99.90;;;;;;4991945;28;20097;-65
2022/11/27 05:11:30;;;;;;;0.10;0.10;;;6.90;99.90;;;;;;4981824;28;20050;-65
2022/11/27 05:14:14;;;;;;;0.10;0.10;;;6.90;99.90;;;;;;5011624;28;20046;-65
2022/11/27 05:16:40;;;;;;;;;;;6.90;99.90;;;;;;5005234;28;20441;-65
2022/11/27 05:19:05;;;;;;;3.00;1.45;;;6.90;99.90;;;;;;5010354;28;19947;-65
2022/11/27 05:21:31;;;;;;;0.20;0.20;;;6.90;99.90;;;;;;4998905;28;20485;-65
2022/11/27 05:23:56;;;;;;;0.80;0.75;;;6.90;99.90;;;;;;5010504;28;20042;-65
2022/11/27 05:26:22;;;;;;;0.85;0.85;;;6.90;99.90;;;;;;4993499;28;20402;-65
2022/11/27 05:28:48;;;;;;;0.95;0.47;;;6.90;99.90;;;;;;5010564;28;20056;-65
2022/11/27 05:31:13;;;;;;;0.43;0.43;;;7.00;99.90;;;;;;5007938;28;20043;-65
2022/11/27 05:33:39;;;;;;;0.68;0.68;;;7.00;99.90;;;;;;5006096;28;20129;-65
2022/11/27 05:36:04;;;;;;;0.10;0.10;;;7.10;99.90;;;;;;5003787;28;20104;-65
2022/11/27 05:38:30;;;;;;;0.10;0.10;;;6.90;99.90;;;;;;4991648;28;20038;-65
2022/11/27 05:40:56;;;;;;;0.10;0.10;;;6.90;99.90;;;;;;4995787;28;20077;-65
2022/11/27 05:43:21;;;;;;;0.10;0.10;;;6.90;99.90;;;;;;5010889;28;20399;-65
2022/11/27 05:45:47;;;;;;;0.10;0.10;;;6.90;99.90;;;;;;5009810;28;20045;-65
2022/11/27 05:48:12;;;;;;;0.10;0.10;;;6.90;99.90;;;;;;5003771;28;20121;-65
2022/11/27 05:50:38;;;;;;;0.10;0.10;;;7.00;99.90;;;;;;5022872;28;20106;-65
2022/11/27 05:53:03;;;;;;;1.23;1.13;;;6.90;99.90;;;;;;4997886;28;20042;-65
2022/11/27 05:55:29;;;;;;;0.10;0.10;;;6.90;99.90;;;;;;5000778;28;20536;-65
2022/11/27 05:57:54;;;;;;;0.22;0.22;;;6.90;99.90;;;;;;4997481;28;20399;-65
2022/11/27 06:00:20;;;;;;;0.10;0.10;;;6.90;99.90;;;;;;4997270;28;20046;-65
2022/11/27 06:02:45;;;;;;;0.50;0.50;;;6.90;99.90;;;;;;5001968;28;20092;-65
2022/11/27 06:05:11;;;;;;;0.20;0.20;;;6.90;99.90;;;;;;4990768;28;20054;-65
2022/11/27 06:07:37;;;;;;;0.10;0.10;;;6.90;99.90;;;;;;5010810;28;20060;-65
2022/11/27 06:10:02;;;;;;;2.63;1.45;;;6.90;99.90;;;;;;5001092;28;20145;-65
2022/11/27 06:12:30;;;;;;;0.22;0.22;;;6.90;99.90;;;;;;5009610;28;20046;-65
2022/11/27 06:14:56;;;;;;;0.10;0.10;;;6.90;99.90;;;;;;5008186;28;20508;-65
2022/11/27 06:17:21;;;;;;;0.10;0.10;;;6.90;99.90;;;;;;5011023;28;20038;-65
2022/11/27 06:19:47;;;;;;;0.65;0.65;;;7.00;99.90;;;;;;4998380;28;20037;-65
2022/11/27 06:22:13;;;;;;;0.38;0.38;;;7.00;99.90;;;;;;4994384;28;20117;-65
2022/11/27 06:24:38;;;;;;;2.85;1.77;;;7.00;99.90;;;;;;5006333;28;20054;-66
2022/11/27 06:27:04;;;;;;;3.03;0.77;;;6.90;99.90;;;;;;4982915;28;20049;-65
2022/11/27 06:29:29;;;;;;;0.40;0.40;;;6.90;99.90;;;;;;4996579;28;20050;-65
2022/11/27 06:31:55;;;;;;;0.10;0.10;;;6.90;99.90;;;;;;4989007;28;20497;-65
2022/11/27 06:34:20;;;;;;;0.30;0.30;;;7.00;99.90;;;;;;5009764;28;20445;-65
2022/11/27 06:36:46;;;;;;;0.10;0.10;;;6.90;99.90;;;;;;5009028;28;20137;-65
2022/11/27 06:39:12;;;;;;;0.10;0.10;;;7.00;99.90;;;;;;5003046;28;20422;-65
2022/11/27 06:41:37;;;;;;;0.10;0.10;;;7.00;99.90;;;;;;4992053;28;20402;-65
2022/11/27 06:44:03;;;;;;;0.10;0.10;;;7.00;99.90;;;;;;4990604;28;20858;-65
2022/11/27 06:46:29;;;;;;;0.20;0.20;;;6.90;99.90;;;;;;5003155;28;20061;-65
2022/11/27 06:48:56;;;;;;;0.20;0.20;;;7.00;99.90;;;;;;5008668;28;20041;-65
2022/11/27 06:51:24;;;;;;;0.10;0.10;;;7.00;99.90;;;;;;5001225;28;20049;-65
2022/11/27 06:53:51;;;;;;;0.25;0.25;;;7.00;99.90;;;;;;5008496;28;20049;-65
2022/11/27 06:56:22;;;;;;;1.27;1.23;;;7.00;99.90;;;;;;5004518;28;20049;-65
2022/11/27 06:58:52;;;;;;;0.65;0.65;;;7.00;99.90;;;;;;4990414;28;20054;-65
2022/11/27 07:01:18;;;;;;;0.10;0.10;;;7.00;99.90;;;;;;4999572;28;20038;-65
2022/11/27 07:03:44;;;;;;;0.00;0.00;;;7.00;99.90;;;;;;5001386;28;20050;-65
2022/11/27 07:06:14;;;;;;;1.42;0.63;;;7.00;99.90;;;;;;5006516;28;20045;-65
2022/11/27 07:08:40;;;;;;;0.10;0.10;;;6.90;99.90;;;;;;5006838;28;20402;-65
2022/11/27 07:11:10;;;;;;;0.10;0.10;;;7.00;99.90;;;;;;4999679;28;20074;-65
2022/11/27 07:13:36;;;;;;;0.55;0.55;;;7.00;99.90;;;;;;4990451;28;20043;-65
2022/11/27 07:16:04;;;;;;;0.65;0.65;;;7.10;99.90;;;;;;5003329;28;20069;-65
2022/11/27 07:18:34;;;;;;;0.10;0.10;;;7.10;99.90;;;;;;4996472;28;20037;-65
2022/11/27 07:20:59;;;;;;;2.08;0.95;;;7.10;99.90;;;;;;5013886;28;20042;-65
2022/11/27 07:23:25;;;;;;;0.10;0.10;;;7.10;99.90;;;;;;4996765;28;20384;-65
2022/11/27 07:25:50;;;;;;;0.00;0.00;;;7.00;99.90;;;;;;4989824;28;20061;-65
2022/11/27 07:28:16;;;;;;;0.30;0.30;;;7.10;99.90;;;;;;4996742;28;20049;-65
2022/11/27 07:30:55;;;;;;;0.10;0.10;;;7.10;99.90;;;;;;5040034;27;20442;-64
2022/11/27 07:33:22;;;;;;;0.10;0.10;;;7.10;99.90;;;;;;5044759;28;20045;-64
2022/11/27 07:35:47;;;;;;;4.70;2.05;;;7.00;99.90;;;;;;5028741;28;20052;-64
2022/11/27 07:38:13;;;;;;;0.30;0.30;;;7.00;99.90;;;;;;5045325;28;20045;-64
2022/11/27 07:40:38;;;;;;;0.10;0.10;;;7.10;99.90;;;;;;5051627;28;20053;-64
2022/11/27 07:43:04;;;;;;;0.10;0.10;;;7.10;99.90;;;;;;5047126;28;20048;-64
2022/11/27 07:45:30;;;;;;;0.10;0.10;;;7.10;99.90;;;;;;5036013;28;20053;-64
2022/11/27 07:47:55;;;;;;;6.60;1.55;;;7.10;99.90;;;;;;5030279;28;20473;-64
2022/11/27 07:50:21;;;;;;;0.85;0.68;;;7.10;99.90;;;;;;5043399;28;20442;-64
2022/11/27 07:52:46;;;;;;;0.10;0.10;;;7.10;99.90;;;;;;5044667;28;20095;-64
2022/11/27 07:55:12;;;;;;;0.10;0.10;;;7.10;99.90;;;;;;5033030;28;20041;-64
2022/11/27 07:57:38;;;;;;;0.10;0.10;;;7.10;99.90;;;;;;5053761;28;20131;-64
2022/11/27 08:00:05;;;;;;;0.65;0.65;;;7.10;99.90;;;;;;5046352;28;20071;-64
2022/11/27 08:02:30;;;;;;;0.10;0.10;;;7.10;99.90;;;;;;5034703;28;20038;-64
2022/11/27 08:04:56;;;;;;;0.10;0.10;;;7.00;99.90;;;;;;5041279;28;20045;-64
2022/11/27 08:07:29;;;;;;;2.08;1.88;;;7.00;99.90;;;;;;5043913;28;20048;-64
2022/11/27 08:09:59;;;;;;;0.35;0.35;;;7.00;99.90;;;;;;5045105;28;20045;-65
2022/11/27 08:12:25;;;;;;;0.10;0.10;;;7.00;99.90;;;;;;5042582;28;20084;-65
2022/11/27 08:14:50;;;;;;;0.40;0.40;;;7.00;99.90;;;;;;5034425;28;20443;-66
2022/11/27 08:17:16;;;;;;;0.30;0.30;;;7.10;99.90;;;;;;5044587;28;20088;-68
2022/11/27 08:19:42;;;;;;;0.30;0.30;;;7.10;99.90;;;;;;5025063;28;20046;-66
2022/11/27 08:22:12;;;;;;;0.10;0.10;;;7.00;99.90;;;;;;5024575;28;20041;-67
2022/11/27 08:24:38;;;;;;;2.95;2.03;;;7.00;99.90;;;;;;5023531;28;20050;-67
2022/11/27 08:27:04;;;;;;;0.10;0.10;;;7.00;99.90;;;;;;5029143;28;20047;-66
2022/11/27 08:29:29;;;;;;;1.75;1.65;;;7.10;99.90;;;;;;5044575;28;20065;-66
2022/11/27 08:31:55;;;;;;;0.05;0.05;;;7.00;99.90;;;;;;5037549;28;20054;-66
2022/11/27 08:34:20;;;;;;;0.20;0.20;;;7.00;99.90;;;;;;5028975;28;20049;-66
2022/11/27 08:36:46;;;;;;;0.75;0.75;;;7.00;99.90;;;;;;5033755;28;20393;-65
2022/11/27 08:39:12;;;;;;;0.50;0.50;;;7.00;99.90;;;;;;5026394;28;20086;-67
2022/11/27 08:41:38;;;;;;;0.25;0.25;;;7.00;99.90;;;;;;5020432;28;20060;-67
2022/11/27 08:44:03;;;;;;;0.10;0.10;;;7.10;99.90;;;;;;5025493;28;20053;-67
2022/11/27 08:46:29;;;;;;;0.08;0.08;;;7.00;99.90;;;;;;5030727;28;20034;-67
2022/11/27 08:48:55;;;;;;;0.88;0.88;;;7.00;99.90;;;;;;5030367;28;20037;-67
2022/11/27 08:51:20;;;;;;;0.00;0.00;;;7.00;99.90;;;;;;5022042;28;20046;-67
2022/11/27 08:53:46;;;;;;;0.10;0.10;;;6.90;99.90;;;;;;5028240;28;20119;-66
2022/11/27 08:56:17;;;;;;;0.20;0.20;;;7.00;99.90;;;;;;5031013;28;20052;-66
2022/11/27 08:58:44;;;;;;;2.40;0.75;;;7.00;99.90;;;;;;5015834;28;20046;-65
2022/11/27 09:01:13;;;;;;;0.00;0.00;;;7.00;99.90;;;;;;5014298;28;20041;-65
2022/11/27 09:03:39;;;;;;;1.08;1.08;;;7.00;99.90;;;;;;5042803;28;20046;-65
2022/11/27 09:06:10;;;;;;;8.13;2.75;;;7.00;99.90;;;;;;5037426;28;20037;-65
2022/11/27 09:08:37;;;;;;;0.52;0.52;;;7.00;99.90;;;;;;5020593;28;20178;-65
2022/11/27 09:11:03;;;;;;;0.22;0.22;;;7.00;99.90;;;;;;5019218;28;20123;-66
2022/11/27 09:13:29;;;;;;;0.90;0.85;;;7.00;99.90;;;;;;5021160;28;20037;-66
2022/11/27 09:15:56;;;;;;;0.00;0.00;;;7.00;99.90;;;;;;5025559;28;20378;-65
2022/11/27 09:18:22;;;;;;;1.75;1.17;;;7.00;99.90;;;;;;5020603;28;20050;-66
2022/11/27 09:20:58;;;;;;;0.13;0.13;;;7.00;99.90;;;;;;5024536;28;20040;-66
2022/11/27 09:23:24;;;;;;;0.52;0.52;;;7.00;99.90;;;;;;5018048;28;20081;-65
2022/11/27 09:25:49;;;;;;;0.10;0.10;;;7.00;99.90;;;;;;5014929;28;20072;-65
2022/11/27 09:28:15;;;;;;;0.20;0.20;;;7.00;99.90;;;;;;5027405;28;20098;-65
2022/11/27 09:30:41;;;;;;;0.38;0.38;;;7.00;99.90;;;;;;5032840;28;20072;-65
2022/11/27 09:33:06;;;;;;;0.22;0.22;;;7.00;99.90;;;;;;5022325;28;20045;-65
2022/11/27 09:35:32;;;;;;;7.22;3.00;;;7.00;99.90;;;;;;5016862;28;20045;-65
2022/11/27 09:37:57;;;;;;;0.10;0.10;;;7.00;99.90;;;;;;5018101;28;20264;-65
2022/11/27 09:40:23;;;;;;;0.10;0.10;;;7.10;99.90;;;;;;5023116;28;20136;-65
2022/11/27 09:43:07;;;;;;;0.10;0.10;;;7.10;99.90;;;;;;5021315;28;20074;-65
2022/11/27 09:45:37;;;;;;;0.73;0.73;;;7.00;99.90;;;;;;5034111;28;20049;-65
2022/11/27 09:48:10;;;;;;;0.55;0.52;;;7.10;99.90;;;;;;5042749;28;20049;-67
2022/11/27 09:50:41;;;;;;;0.20;0.20;;;7.10;99.90;;;;;;5023156;28;20046;-68
2022/11/27 09:53:16;;;;;;;0.10;0.10;;;7.10;99.90;;;;;;5025613;28;20087;-68
2022/11/27 09:55:46;;;;;;;0.32;0.32;;;7.10;99.90;;;;;;5014531;28;20045;-68
2022/11/27 09:58:22;;;;;;;0.00;0.00;;;7.10;99.90;;;;;;5022143;28;20417;-68
2022/11/27 10:00:48;;;;;;;0.47;0.47;;;7.10;99.90;;;;;;5041512;28;20739;-68
2022/11/27 10:03:18;;;;;;;0.90;0.90;;;7.10;99.90;;;;;;5017902;28;20053;-68
2022/11/27 10:05:57;;;;;;;0.75;0.75;;;7.10;99.90;;;;;;5024415;28;20040;-68
2022/11/27 10:08:54;;;;;;;0.10;0.10;;;7.20;99.90;;;;;;5019280;28;20099;-68
2022/11/27 10:11:37;;;;;;;0.98;0.52;;;7.10;99.90;;;;;;5018353;28;20594;-68
2022/11/27 10:14:12;;;;;;;0.10;0.10;;;7.10;99.90;;;;;;5014575;28;20050;-68
2022/11/27 10:16:47;;;;;;;0.10;0.10;;;7.10;99.90;;;;;;5048534;28;20056;-68
2022/11/27 10:19:22;;;;;;;2.83;1.85;;;7.10;99.90;;;;;;5029324;28;20030;-68
2022/11/27 10:21:55;;;;;;;0.68;0.68;;;7.20;99.90;;;;;;5026888;28;20099;-68
2022/11/27 10:24:50;;;;;;;0.10;0.10;;;7.20;99.90;;;;;;5025853;28;20032;-68
2022/11/27 10:27:51;;;;;;;0.20;0.20;;;7.20;99.90;;;;;;5022505;28;20587;-68
2022/11/27 10:30:19;;;;;;;0.10;0.10;;;7.20;99.90;;;;;;5011470;28;20143;-68
2022/11/27 10:32:49;;;;;;;0.17;0.17;;;7.20;99.90;;;;;;5016580;28;20046;-68
2022/11/27 10:35:22;;;;;;;1.15;1.05;;;7.30;99.90;;;;;;5015880;28;20041;-68
2022/11/27 10:37:55;;;;;;;0.10;0.10;;;7.30;99.90;;;;;;5029108;28;20042;-68
2022/11/27 10:40:41;;;;;;;0.10;0.10;;;7.20;99.90;;;;;;5008281;28;20037;-68
2022/11/27 10:43:17;;;;;;;0.10;0.10;;;7.30;99.90;;;;;;5011111;28;20037;-68
2022/11/27 10:46:10;;;;;;;0.10;0.10;;;7.20;99.90;;;;;;5008504;28;20845;-68
2022/11/27 10:48:36;;;;;;;0.10;0.10;;;7.20;99.90;;;;;;5017195;28;20046;-68
2022/11/27 10:51:01;;;;;;;0.10;0.10;;;7.20;99.90;;;;;;5008737;28;20041;-68
2022/11/27 10:53:34;;;;;;;0.63;0.63;;;7.20;99.90;;;;;;5013007;28;20038;-68
2022/11/27 10:56:15;;;;;;;1.02;1.00;;;7.20;99.90;;;;;;5017879;28;20042;-68
2022/11/27 10:58:58;;;;;;;0.10;0.10;;;7.20;99.90;;;;;;5019842;28;20091;-67
2022/11/27 11:01:26;;;;;;;0.25;0.25;;;7.20;99.90;;;;;;5011652;28;20560;-68
2022/11/27 11:04:05;;;;;;;0.10;0.10;;;7.20;99.90;;;;;;5010801;28;20042;-68
2022/11/27 11:06:36;;;;;;;2.40;0.75;;;7.30;99.90;;;;;;5014616;28;20049;-67
2022/11/27 11:09:20;;;;;;;0.40;0.40;;;7.30;99.90;;;;;;5026066;28;20085;-68
2022/11/27 11:11:46;;;;;;;0.10;0.10;;;7.40;99.90;;;;;;5021372;28;20103;-68
2022/11/27 11:14:24;;;;;;;0.13;0.13;;;7.40;99.90;;;;;;5018940;28;20045;-68
2022/11/27 11:16:52;;;;;;;0.30;0.30;;;7.50;99.90;;;;;;5039220;28;20037;-68
2022/11/27 11:19:29;;;;;;;0.20;0.20;;;7.50;99.90;;;;;;5037783;28;20045;-68
2022/11/27 11:21:55;;;;;;;0.10;0.10;;;7.50;99.90;;;;;;5029115;28;20041;-68
2022/11/27 11:24:30;;;;;;;0.30;0.30;;;7.40;99.90;;;;;;5023633;28;20119;-68
2022/11/27 11:27:21;;;;;;;0.10;0.10;;;7.50;99.90;;;;;;5017998;28;20437;-68
2022/11/27 11:29:58;;;;;;;0.10;0.10;;;7.50;99.90;;;;;;5019868;28;20049;-68
2022/11/27 11:32:27;;;;;;;0.38;0.38;;;7.40;99.90;;;;;;5008258;28;20076;-69
2022/11/27 11:34:56;;;;;;;0.10;0.10;;;7.50;99.90;;;;;;5008134;28;20037;-68
2022/11/27 11:37:27;;;;;;;0.10;0.10;;;7.50;99.90;;;;;;5020000;28;20094;-68
2022/11/27 11:40:04;;;;;;;0.47;0.47;;;7.50;99.90;;;;;;5019611;28;20045;-68
2022/11/27 11:42:33;;;;;;;1.10;1.10;;;7.50;99.90;;;;;;5006815;28;20436;-68
2022/11/27 11:45:16;;;;;;;0.00;0.00;;;7.50;99.90;;;;;;5018563;28;20089;-68
2022/11/27 11:47:53;;;;;;;0.43;0.43;;;7.50;99.90;;;;;;5008564;28;20108;-67
2022/11/27 11:50:45;;;;;;;0.10;0.10;;;7.50;99.90;;;;;;5022828;28;20077;-68
2022/11/27 11:53:31;;;;;;;0.20;0.20;;;7.50;99.90;;;;;;5011525;28;20544;-69
2022/11/27 11:56:04;;;;;;;1.13;1.13;;;7.50;99.90;;;;;;5014786;28;20058;-68
2022/11/27 11:58:49;;;;;;;0.00;0.00;;;7.50;99.90;;;;;;5025412;28;20081;-68
2022/11/27 12:01:24;;;;;;;0.10;0.10;;;7.50;99.90;;;;;;5022991;28;20073;-68
2022/11/27 12:04:11;;;;;;;0.17;0.17;;;7.40;99.90;;;;;;5007501;28;20133;-67
2022/11/27 12:07:00;;;;;;;0.10;0.10;;;7.50;99.90;;;;;;5008006;28;20144;-68
2022/11/27 12:09:45;;;;;;;0.93;0.93;;;7.40;99.90;;;;;;5024727;28;20478;-67
2022/11/27 12:12:21;;;;;;;0.98;0.57;;;7.40;99.90;;;;;;5009077;28;20060;-68
2022/11/27 12:14:55;;;;;;;0.00;0.00;;;7.50;99.90;;;;;;5009767;28;20060;-68
2022/11/27 12:17:42;;;;;;;1.25;0.90;;;7.60;99.90;;;;;;5013473;28;20049;-68
2022/11/27 12:20:14;;;;;;;0.55;0.52;;;7.60;99.90;;;;;;5011472;28;20050;-68
2022/11/27 12:23:17;;;;;;;0.68;0.68;;;7.60;99.90;;;;;;5014535;28;20524;-68
2022/11/27 12:25:48;;;;;;;0.10;0.10;;;7.60;99.90;;;;;;5015280;28;20378;-68
2022/11/27 12:28:22;;;;;;;0.75;0.75;;;7.70;99.90;;;;;;5020782;28;20058;-68
2022/11/27 12:31:14;;;;;;;0.10;0.10;;;7.60;99.90;;;;;;5022418;28;20108;-68
2022/11/27 12:33:57;;;;;;;0.10;0.10;;;7.60;99.90;;;;;;5010415;28;20042;-68
2022/11/27 12:36:32;;;;;;;1.20;1.17;;;7.60;99.90;;;;;;5017605;28;20092;-68
2022/11/27 12:39:06;;;;;;;0.40;0.40;;;7.60;99.90;;;;;;5010182;28;20073;-68
2022/11/27 12:41:38;;;;;;;0.30;0.30;;;7.50;99.90;;;;;;5019480;28;20060;-68
2022/11/27 12:44:30;;;;;;;0.10;0.10;;;7.60;99.90;;;;;;5015141;28;20046;-68
2022/11/27 12:47:08;;;;;;;0.55;0.55;;;7.60;99.90;;;;;;5028818;28;20084;-67
2022/11/27 12:49:46;;;;;;;0.10;0.10;;;7.60;99.90;;;;;;5015571;28;20092;-68
2022/11/27 12:52:25;;;;;;;0.63;0.63;;;7.70;99.90;;;;;;5012462;28;20557;-68
2022/11/27 12:55:14;;;;;;;0.13;0.13;;;7.70;99.90;;;;;;5009165;28;20669;-68
2022/11/27 12:57:45;;;;;;;0.40;0.40;;;7.70;99.90;;;;;;5025736;28;20432;-68
2022/11/27 13:00:23;;;;;;;0.20;0.20;;;7.70;99.90;;;;;;5021686;28;20053;-68
2022/11/27 13:03:01;;;;;;;1.85;0.65;;;7.70;99.90;;;;;;5030638;28;20045;-68
2022/11/27 13:05:43;;;;;;;0.30;0.30;;;7.70;99.90;;;;;;5024753;28;20045;-68
2022/11/27 13:08:11;;;;;;;0.15;0.15;;;7.60;99.90;;;;;;5012587;28;20046;-68
2022/11/27 13:10:46;;;;;;;0.10;0.10;;;7.60;99.90;;;;;;5045334;28;20071;-68
2022/11/27 13:13:36;;;;;;;0.50;0.50;;;7.70;99.90;;;;;;5013582;28;20050;-68
2022/11/27 13:16:24;;;;;;;0.10;0.10;;;7.70;99.90;;;;;;5016982;28;20041;-68